Weather at Tobertaskin Airstrip

Public forecast

Using degrees Celsius for public forecast. Weather courtesy of forecast.io.

Closest aviation weather report (METAR) to Tobertaskin Airstrip

Closest report is Dublin Airport, 10.9 nm (20.1 km) S.

2024/05/28 15:30 (retrieved 36 minutes ago)

EIDW 281530Z 25014KT 200V290 9999 FEW017 FEW025CB SCT030 18/10 Q1004 NOSIG

Closest aviation forecast (TAF) to Tobertaskin Airstrip

Closest forecast is Dublin Airport, 10.9 nm (20.1 km) S.

2024/05/28 12:09 (retrieved 4 hours ago)

TAF EIDW 281100Z 2812/2912 25011KT 9999 SCT018 BKN025 PROB40 TEMPO 2812/2820 -SHRA BKN014 FEW018CB PROB30 TEMPO 2815/2818 4000 SHRA PROB40 TEMPO 2902/2908 BKN012 PROB30 TEMPO 2903/2907 4000 -SHRA BKN009 BECMG 2907/2909 29010KT